Time;durP1;ratioP1;P1;durP2;ratioP2;P2;SDS_P1;SDS_P2;PMS_P1;PMS_P2;Temp;Humidity;BMP_temperature;BMP_pressure;BME280_temperature;BME280_humidity;BME280_pressure;Samples;Min_cycle;Max_cycle;Signal;HPM_P1;HPM_P2
2022/11/11 00:01:32;;;;;;;17.15;5.53;;;12.30;99.90;;;;;;5052492;28;20032;-89
2022/11/11 00:03:57;;;;;;;19.33;6.75;;;12.30;99.90;;;;;;5053574;28;20051;-90
2022/11/11 00:06:23;;;;;;;10.30;4.53;;;12.20;99.90;;;;;;5018802;28;20040;-91
2022/11/11 00:08:49;;;;;;;16.60;6.18;;;12.20;99.90;;;;;;5052825;28;20040;-91
2022/11/11 00:11:15;;;;;;;16.63;6.07;;;12.20;99.90;;;;;;5052074;28;20036;-91
2022/11/11 00:13:42;;;;;;;13.32;5.38;;;12.20;99.90;;;;;;5035999;28;20040;-89
2022/11/11 00:16:16;;;;;;;18.58;5.25;;;12.20;99.90;;;;;;5052035;28;20040;-91
2022/11/11 00:27:09;;;;;;;10.85;5.68;;;12.60;99.90;;;;;;5068320;28;20082;-90
2022/11/11 00:29:36;;;;;;;13.02;5.40;;;12.10;99.90;;;;;;5053140;28;20048;-91
2022/11/11 00:37:34;;;;;;;15.68;6.68;;;12.10;99.90;;;;;;5040013;28;20131;-90
2022/11/11 00:40:26;;;;;;;12.05;6.13;;;12.10;99.90;;;;;;5018645;28;20377;-90
2022/11/11 00:42:51;;;;;;;13.27;5.10;;;12.10;99.90;;;;;;5033037;28;20128;-88
2022/11/11 00:45:17;;;;;;;12.05;5.28;;;12.60;99.90;;;;;;5051169;28;20075;-90
2022/11/11 00:53:13;;;;;;;15.07;5.85;;;12.20;99.90;;;;;;5067515;28;20059;-91
2022/11/11 00:55:39;;;;;;;17.23;6.75;;;12.20;99.90;;;;;;5052257;28;20131;-89
2022/11/11 00:58:05;;;;;;;16.52;5.72;;;12.10;99.90;;;;;;5034022;28;20499;-90
2022/11/11 01:00:31;;;;;;;16.58;6.45;;;12.10;99.90;;;;;;5035575;28;20086;-92
2022/11/11 01:02:57;;;;;;;14.60;5.53;;;12.10;99.90;;;;;;5034601;28;20047;-89
2022/11/11 01:05:24;;;;;;;14.55;6.15;;;12.20;99.90;;;;;;5068284;28;20079;-91
2022/11/11 01:07:50;;;;;;;19.98;6.40;;;12.60;99.90;;;;;;5051469;28;20135;-91
2022/11/11 01:10:36;;;;;;;11.35;6.35;;;12.10;99.90;;;;;;5017950;28;20479;-92
2022/11/11 01:13:22;;;;;;;13.25;6.13;;;12.10;99.90;;;;;;5041141;28;20562;-90
2022/11/11 01:15:51;;;;;;;16.48;6.07;;;12.10;99.90;;;;;;5050978;28;20047;-91
2022/11/11 01:18:20;;;;;;;20.00;7.18;;;12.10;99.90;;;;;;5051705;28;20403;-92
2022/11/11 01:20:46;;;;;;;16.42;5.68;;;12.10;99.90;;;;;;5051779;28;20361;-91
2022/11/11 01:23:12;;;;;;;11.63;5.93;;;12.70;99.90;;;;;;5034998;28;20044;-89
2022/11/11 01:25:40;;;;;;;17.90;6.20;;;12.10;99.90;;;;;;5040402;28;20107;-93
2022/11/11 01:28:07;;;;;;;13.65;6.18;;;12.20;99.90;;;;;;5064337;28;20075;-90
2022/11/11 01:30:33;;;;;;;17.17;6.43;;;12.10;99.90;;;;;;5071609;28;20191;-92
2022/11/11 01:33:00;;;;;;;13.00;7.22;;;12.20;99.90;;;;;;5052060;28;20498;-89
2022/11/11 01:35:25;;;;;;;20.42;6.80;;;12.10;99.90;;;;;;5067651;28;20056;-91
2022/11/11 01:37:51;;;;;;;16.83;6.18;;;12.10;99.90;;;;;;5035223;28;20048;-90
2022/11/11 01:40:17;;;;;;;18.08;6.70;;;12.10;99.90;;;;;;5034699;28;20054;-89
2022/11/11 01:42:50;;;;;;;15.85;7.80;;;12.10;99.90;;;;;;5068580;28;20036;-91
2022/11/11 01:46:02;;;;;;;16.83;6.20;;;12.10;99.90;;;;;;5050605;28;20460;-92
2022/11/11 01:51:22;;;;;;;17.75;6.53;;;12.10;99.90;;;;;;5068168;28;20079;-93
2022/11/11 01:53:54;;;;;;;12.95;6.13;;;12.10;99.90;;;;;;5050240;28;20043;-92
2022/11/11 01:56:21;;;;;;;15.43;6.22;;;12.10;99.90;;;;;;5051623;28;20058;-91
2022/11/11 01:58:47;;;;;;;18.35;6.80;;;12.10;99.90;;;;;;5033785;28;20040;-92
2022/11/11 02:01:13;;;;;;;19.73;8.10;;;12.10;99.90;;;;;;5051013;28;20052;-92
2022/11/11 02:03:40;;;;;;;16.00;6.53;;;12.10;99.90;;;;;;5034416;28;20040;-91
2022/11/11 02:06:07;;;;;;;24.00;7.50;;;12.70;99.90;;;;;;5055014;28;20114;-92
2022/11/11 02:08:36;;;;;;;19.85;7.22;;;12.10;99.90;;;;;;5056063;28;20036;-90
2022/11/11 02:14:34;;;;;;;14.52;6.30;;;12.10;99.90;;;;;;5037782;28;20487;-90
2022/11/11 02:16:45;;;;;;;17.38;6.28;;;12.30;99.90;;;;;;5071486;28;20051;-92
2022/11/11 02:19:12;;;;;;;14.93;7.65;;;12.10;99.90;;;;;;5071014;28;20044;-91
2022/11/11 02:21:46;;;;;;;11.93;6.25;;;13.00;99.90;;;;;;5038205;28;20125;-91
2022/11/11 02:24:15;;;;;;;19.00;6.80;;;12.10;99.90;;;;;;5053799;28;20487;-91
2022/11/11 02:26:42;;;;;;;17.60;7.10;;;12.10;99.90;;;;;;5054394;28;20089;-92
2022/11/11 02:29:13;;;;;;;17.05;6.82;;;12.10;99.90;;;;;;5054365;28;20503;-90
2022/11/11 02:31:38;;;;;;;14.70;6.38;;;12.50;99.90;;;;;;5054327;28;20044;-93
2022/11/11 02:34:04;;;;;;;22.08;7.82;;;12.20;99.90;;;;;;5021840;28;20047;-90
2022/11/11 02:36:30;;;;;;;15.18;7.63;;;12.20;99.90;;;;;;5020042;28;20055;-91
2022/11/11 02:38:56;;;;;;;18.73;7.60;;;12.70;99.90;;;;;;5038504;28;20036;-91
2022/11/11 02:44:06;;;;;;;20.55;8.65;;;12.10;99.90;;;;;;5041869;28;20143;-91
2022/11/11 02:46:33;;;;;;;19.65;7.95;;;12.50;99.90;;;;;;5037476;28;20131;-92
2022/11/11 02:48:58;;;;;;;17.02;8.00;;;12.10;99.90;;;;;;5070204;28;20056;-92
2022/11/11 02:51:24;;;;;;;22.27;7.45;;;12.80;99.90;;;;;;5054722;28;20131;-92
2022/11/11 02:53:49;;;;;;;17.17;7.88;;;12.10;99.90;;;;;;5053140;28;20142;-93
2022/11/11 02:57:05;;;;;;;15.95;7.32;;;12.20;99.90;;;;;;5053979;28;20039;-90
2022/11/11 02:59:01;;;;;;;18.05;8.43;;;12.10;99.90;;;;;;5056138;28;20036;-91
2022/11/11 03:01:26;;;;;;;18.15;8.90;;;12.00;99.90;;;;;;5070194;28;20089;-91
2022/11/11 03:03:52;;;;;;;23.20;8.13;;;12.00;99.90;;;;;;5070934;28;20048;-90
2022/11/11 03:06:18;;;;;;;18.88;9.32;;;12.00;99.90;;;;;;5069859;28;20093;-93
2022/11/11 03:08:44;;;;;;;19.23;9.07;;;12.00;99.90;;;;;;5054345;28;20052;-92
2022/11/11 03:11:09;;;;;;;18.85;9.82;;;11.90;99.90;;;;;;5036025;28;20044;-92
2022/11/11 03:13:35;;;;;;;17.83;10.23;;;11.90;99.90;;;;;;5036969;28;20044;-91
2022/11/11 03:16:01;;;;;;;20.65;10.50;;;11.90;99.90;;;;;;5052701;28;20044;-92
2022/11/11 03:18:26;;;;;;;19.02;9.57;;;11.90;99.90;;;;;;5019868;28;20127;-92
2022/11/11 03:21:04;;;;;;;22.55;9.90;;;11.80;99.90;;;;;;5053941;28;20185;-92
2022/11/11 03:23:29;;;;;;;17.73;9.73;;;11.80;99.90;;;;;;5022665;28;20281;-91
2022/11/11 03:25:55;;;;;;;21.33;12.13;;;11.80;99.90;;;;;;5021083;28;20138;-90
2022/11/11 03:28:23;;;;;;;21.33;11.05;;;11.70;99.90;;;;;;5035288;28;20419;-90
2022/11/11 03:30:50;;;;;;;18.00;12.20;;;11.80;99.90;;;;;;5070034;28;20043;-91
2022/11/11 03:33:17;;;;;;;20.50;11.40;;;11.70;99.90;;;;;;5036888;28;20540;-92
2022/11/11 03:35:45;;;;;;;19.40;11.73;;;12.50;99.90;;;;;;5052922;28;20059;-90
2022/11/11 03:38:15;;;;;;;21.17;11.63;;;11.70;99.90;;;;;;5054193;28;20039;-93
2022/11/11 03:40:45;;;;;;;19.33;11.80;;;11.70;99.90;;;;;;5083454;28;20044;-90
2022/11/11 03:43:13;;;;;;;17.90;11.25;;;11.60;99.90;;;;;;5062388;28;20087;-91
2022/11/11 03:45:39;;;;;;;23.63;13.25;;;11.60;99.90;;;;;;5053448;28;20051;-92
2022/11/11 03:48:05;;;;;;;19.77;12.35;;;11.60;99.90;;;;;;5069363;28;20036;-91
2022/11/11 03:50:31;;;;;;;19.60;12.40;;;11.60;99.90;;;;;;5052665;28;20094;-91
2022/11/11 03:52:56;;;;;;;21.27;12.75;;;11.60;99.90;;;;;;5069068;28;20052;-92
2022/11/11 03:55:22;;;;;;;24.42;12.95;;;11.70;99.90;;;;;;5036963;28;20070;-91
2022/11/11 03:57:48;;;;;;;22.65;12.98;;;11.60;99.90;;;;;;5068509;28;20044;-89
2022/11/11 04:00:20;;;;;;;23.92;12.20;;;11.50;99.90;;;;;;5056099;28;20051;-90
2022/11/11 04:11:13;;;;;;;22.67;13.88;;;11.80;99.90;;;;;;5058125;28;20515;-91
2022/11/11 04:16:27;;;;;;;25.17;14.57;;;11.50;99.90;;;;;;5071925;28;20048;-89
2022/11/11 04:21:43;;;;;;;32.35;14.43;;;11.50;99.90;;;;;;5058720;28;20102;-91
2022/11/11 04:27:05;;;;;;;29.38;14.70;;;11.40;99.90;;;;;;5070877;28;20131;-91
2022/11/11 04:29:33;;;;;;;27.55;15.63;;;11.40;99.90;;;;;;5056632;28;20130;-92
2022/11/11 04:35:01;;;;;;;24.40;12.82;;;11.40;99.90;;;;;;5072756;28;20131;-90
2022/11/11 04:37:30;;;;;;;23.38;14.65;;;11.40;99.90;;;;;;5054618;28;20085;-91
2022/11/11 04:42:40;;;;;;;29.02;15.05;;;11.40;99.90;;;;;;5043727;28;20058;-91
2022/11/11 04:45:27;;;;;;;20.95;14.85;;;11.50;99.90;;;;;;5055021;28;20040;-90
2022/11/11 04:47:58;;;;;;;21.63;14.82;;;11.40;99.90;;;;;;5055558;28;20047;-89
2022/11/11 04:50:29;;;;;;;21.88;15.10;;;11.40;99.90;;;;;;5039716;28;20048;-90
2022/11/11 04:52:55;;;;;;;24.08;15.32;;;11.30;99.90;;;;;;5057199;28;20044;-91
2022/11/11 04:58:06;;;;;;;27.55;15.02;;;11.40;99.90;;;;;;5071120;28;20131;-90
2022/11/11 05:00:31;;;;;;;22.05;14.32;;;12.30;99.90;;;;;;5039653;28;20040;-92
2022/11/11 05:03:15;;;;;;;23.50;15.13;;;11.40;99.90;;;;;;5039102;28;20039;-91
2022/11/11 05:09:00;;;;;;;30.02;16.33;;;11.40;99.90;;;;;;5059283;28;20090;-91
2022/11/11 05:11:31;;;;;;;30.70;16.13;;;11.30;99.90;;;;;;5051238;28;20036;-90
2022/11/11 05:22:33;;;;;;;29.13;15.88;;;11.40;99.90;;;;;;5070804;28;20047;-89
2022/11/11 05:27:47;;;;;;;28.65;17.17;;;11.30;99.90;;;;;;5065714;28;20055;-93
2022/11/11 05:30:14;;;;;;;29.33;18.08;;;11.30;99.90;;;;;;5032199;28;20048;-91
2022/11/11 05:32:41;;;;;;;26.75;16.52;;;11.20;99.90;;;;;;5046222;28;20044;-92
2022/11/11 05:35:07;;;;;;;23.95;16.52;;;11.30;99.90;;;;;;5031456;28;20051;-89
2022/11/11 05:37:33;;;;;;;25.73;16.98;;;11.30;99.90;;;;;;5030469;28;20071;-92
2022/11/11 05:39:59;;;;;;;27.73;16.42;;;11.30;99.90;;;;;;5014637;28;20048;-91
2022/11/11 05:42:24;;;;;;;26.58;16.73;;;11.70;99.90;;;;;;5031628;28;20040;-91
2022/11/11 05:44:50;;;;;;;25.95;16.85;;;11.30;99.90;;;;;;5047527;28;20043;-93
2022/11/11 05:47:16;;;;;;;33.95;17.02;;;11.70;99.90;;;;;;5048282;28;20040;-92
2022/11/11 05:49:42;;;;;;;30.38;17.52;;;11.30;99.90;;;;;;5047125;28;20044;-94
2022/11/11 05:52:11;;;;;;;25.23;16.17;;;11.30;99.90;;;;;;5033030;28;20134;-89
2022/11/11 05:54:37;;;;;;;28.55;16.83;;;11.30;99.90;;;;;;5063311;28;20045;-92
2022/11/11 05:57:03;;;;;;;25.02;16.08;;;11.60;99.90;;;;;;5041533;28;20150;-91
2022/11/11 05:59:29;;;;;;;28.38;17.23;;;11.50;99.90;;;;;;5036419;28;20036;-92
2022/11/11 06:01:55;;;;;;;32.55;18.10;;;11.20;99.90;;;;;;5032783;28;20055;-91
2022/11/11 06:04:20;;;;;;;28.08;17.77;;;11.10;99.90;;;;;;5033158;28;20072;-92
2022/11/11 06:06:46;;;;;;;28.88;17.13;;;12.00;99.90;;;;;;5013711;28;20094;-86
2022/11/11 06:09:12;;;;;;;30.67;17.30;;;11.00;99.90;;;;;;5050497;28;20044;-91
2022/11/11 06:11:38;;;;;;;28.17;17.50;;;11.00;99.90;;;;;;5039797;28;20051;-92
2022/11/11 06:14:04;;;;;;;34.75;18.08;;;11.00;99.90;;;;;;5024575;28;20109;-94
2022/11/11 06:16:30;;;;;;;24.13;16.75;;;10.90;99.90;;;;;;5001122;28;20559;-86
2022/11/11 06:18:55;;;;;;;30.30;16.52;;;11.60;99.90;;;;;;5048583;28;20083;-87
2022/11/11 06:21:21;;;;;;;31.75;17.10;;;10.90;99.90;;;;;;5008808;28;20055;-96
2022/11/11 06:23:48;;;;;;;28.05;15.25;;;11.10;99.90;;;;;;5054031;28;20388;-96
2022/11/11 06:26:15;;;;;;;26.05;16.52;;;11.40;99.90;;;;;;5011232;28;20051;-96
2022/11/11 06:28:45;;;;;;;31.23;17.10;;;11.00;99.90;;;;;;5057599;28;20095;-91
2022/11/11 06:31:14;;;;;;;31.02;15.00;;;11.00;99.90;;;;;;5055519;28;20039;-91
2022/11/11 06:33:42;;;;;;;33.03;15.07;;;11.10;99.90;;;;;;5034110;28;20066;-92
2022/11/11 06:36:13;;;;;;;30.52;15.60;;;11.20;99.90;;;;;;5062566;28;20044;-96
2022/11/11 06:38:46;;;;;;;28.40;16.05;;;11.30;99.90;;;;;;5041891;28;20117;-94
2022/11/11 06:41:14;;;;;;;29.80;16.10;;;11.30;99.90;;;;;;5058219;28;20044;-96
2022/11/11 06:43:42;;;;;;;31.75;15.90;;;11.40;99.90;;;;;;5036893;28;20448;-93
2022/11/11 06:46:25;;;;;;;20.50;16.10;;;11.40;99.90;;;;;;5034989;28;20072;-87
2022/11/11 06:48:50;;;;;;;32.43;17.00;;;11.40;99.90;;;;;;5031982;28;20159;-88
2022/11/11 06:51:16;;;;;;;28.58;17.13;;;11.40;99.90;;;;;;5030929;28;20079;-85
2022/11/11 06:53:42;;;;;;;28.30;17.00;;;11.40;99.90;;;;;;5022502;28;20036;-93
2022/11/11 06:56:11;;;;;;;30.88;16.77;;;11.40;99.90;;;;;;5036334;28;20106;-96
2022/11/11 06:58:37;;;;;;;28.13;16.90;;;11.40;99.90;;;;;;5020630;28;20033;-93
2022/11/11 07:01:04;;;;;;;29.70;16.85;;;11.50;99.90;;;;;;5035054;28;20553;-92
2022/11/11 07:03:34;;;;;;;30.67;16.63;;;11.50;99.90;;;;;;5037851;28;20115;-96
2022/11/11 07:06:05;;;;;;;25.45;17.55;;;11.50;99.90;;;;;;5037842;28;20041;-95
2022/11/11 07:08:34;;;;;;;26.52;17.05;;;11.50;99.90;;;;;;5036499;28;20123;-95
2022/11/11 07:11:01;;;;;;;31.27;18.58;;;11.70;99.90;;;;;;5023679;28;20072;-95
2022/11/11 07:13:26;;;;;;;31.55;18.60;;;11.50;99.90;;;;;;5038346;28;20041;-95
2022/11/11 07:15:52;;;;;;;28.25;17.38;;;11.50;99.90;;;;;;5024559;28;20335;-94
2022/11/11 07:18:18;;;;;;;27.67;16.08;;;11.50;99.90;;;;;;5039517;28;20048;-96
2022/11/11 07:20:43;;;;;;;40.47;18.77;;;11.50;99.90;;;;;;5024263;28;20479;-95
2022/11/11 07:23:09;;;;;;;31.50;17.40;;;12.10;99.90;;;;;;5025600;28;20044;-95
2022/11/11 07:25:35;;;;;;;25.70;17.63;;;11.50;99.90;;;;;;5020781;28;20467;-94
2022/11/11 07:28:01;;;;;;;26.77;16.52;;;12.00;99.90;;;;;;5010463;28;20062;-94
2022/11/11 07:30:26;;;;;;;24.83;17.48;;;11.50;99.90;;;;;;5056811;28;20489;-94
2022/11/11 07:32:53;;;;;;;27.52;18.15;;;11.50;99.90;;;;;;5041323;28;20055;-93
2022/11/11 07:35:20;;;;;;;24.55;17.10;;;11.60;99.90;;;;;;5040916;28;20051;-95
2022/11/11 07:37:46;;;;;;;28.60;17.67;;;11.50;99.90;;;;;;5036640;28;20126;-88
2022/11/11 07:40:14;;;;;;;32.28;17.45;;;11.50;99.90;;;;;;5069055;28;20125;-94
2022/11/11 07:42:41;;;;;;;26.90;17.02;;;11.50;99.90;;;;;;5036868;28;20040;-88
2022/11/11 07:45:10;;;;;;;28.45;16.80;;;11.80;99.90;;;;;;5053322;28;20051;-87
2022/11/11 07:47:36;;;;;;;27.17;18.27;;;11.50;99.90;;;;;;5051385;28;20044;-95
2022/11/11 07:50:03;;;;;;;33.25;17.65;;;11.50;99.90;;;;;;5040119;28;20040;-95
2022/11/11 07:52:28;;;;;;;28.90;16.73;;;11.50;99.90;;;;;;5038157;28;20079;-95
2022/11/11 07:54:55;;;;;;;33.70;18.58;;;11.50;99.90;;;;;;5022474;28;20087;-96
2022/11/11 07:57:21;;;;;;;28.20;16.30;;;12.00;99.90;;;;;;5039025;28;20044;-94
2022/11/11 07:59:47;;;;;;;27.33;15.93;;;11.60;99.90;;;;;;5022200;28;20050;-96
2022/11/11 08:02:13;;;;;;;23.85;15.20;;;11.60;99.90;;;;;;5037465;28;20047;-95
2022/11/11 08:04:39;;;;;;;25.38;15.70;;;11.80;99.90;;;;;;5021877;28;20048;-95
2022/11/11 08:07:05;;;;;;;27.27;16.33;;;12.00;99.90;;;;;;5052642;28;20066;-95
2022/11/11 08:09:31;;;;;;;28.92;17.35;;;11.70;99.90;;;;;;5051335;28;20044;-94
2022/11/11 08:14:40;;;;;;;23.20;17.42;;;12.20;99.90;;;;;;5057156;28;20522;-93
2022/11/11 08:17:06;;;;;;;35.63;17.30;;;11.60;99.90;;;;;;5020809;28;20460;-95
2022/11/11 08:19:32;;;;;;;26.85;16.08;;;11.90;99.90;;;;;;5021167;28;20048;-95
2022/11/11 08:21:57;;;;;;;29.33;17.48;;;11.90;99.90;;;;;;5036099;28;20127;-95
2022/11/11 08:24:23;;;;;;;29.67;17.23;;;11.70;99.90;;;;;;5039547;28;20075;-95
2022/11/11 08:26:49;;;;;;;33.03;17.45;;;12.10;99.90;;;;;;5036925;28;20094;-95
2022/11/11 08:29:15;;;;;;;25.58;15.43;;;11.60;99.90;;;;;;5022986;28;20514;-95
2022/11/11 08:31:41;;;;;;;26.65;16.10;;;12.20;99.90;;;;;;5003029;28;20072;-94
2022/11/11 08:34:06;;;;;;;33.00;16.02;;;12.20;99.90;;;;;;5020461;28;20040;-96
2022/11/11 08:36:32;;;;;;;28.75;15.90;;;11.80;99.90;;;;;;5034324;28;20044;-96
2022/11/11 08:38:58;;;;;;;28.23;17.10;;;11.70;99.90;;;;;;5015898;28;20070;-94
2022/11/11 08:41:24;;;;;;;28.42;15.82;;;11.70;99.90;;;;;;5017923;28;20084;-95
2022/11/11 08:43:52;;;;;;;23.85;15.30;;;12.40;99.90;;;;;;5031702;28;20131;-94
2022/11/11 08:46:18;;;;;;;26.27;15.85;;;11.70;99.90;;;;;;5034994;28;20160;-95
2022/11/11 08:48:43;;;;;;;30.27;15.85;;;11.80;99.90;;;;;;4998085;28;20041;-96
2022/11/11 08:51:09;;;;;;;28.65;16.90;;;11.70;99.90;;;;;;5016684;28;20037;-95
2022/11/11 08:53:35;;;;;;;28.77;16.23;;;11.70;99.90;;;;;;5015527;28;20044;-96
2022/11/11 08:56:07;;;;;;;26.35;16.40;;;12.40;99.90;;;;;;5013442;28;20090;-95
2022/11/11 08:58:33;;;;;;;22.77;12.95;;;11.70;99.90;;;;;;5033021;28;20044;-95
2022/11/11 09:01:02;;;;;;;26.88;15.27;;;12.30;99.90;;;;;;5031319;28;20122;-94
2022/11/11 09:03:29;;;;;;;28.02;16.10;;;11.70;99.90;;;;;;5034710;28;20044;-96
2022/11/11 09:05:55;;;;;;;26.73;15.93;;;12.00;99.90;;;;;;5031363;28;20514;-96
2022/11/11 09:08:21;;;;;;;28.30;15.48;;;11.90;99.90;;;;;;5033197;28;20373;-94
2022/11/11 09:10:46;;;;;;;24.27;15.35;;;11.70;99.90;;;;;;4999699;28;20047;-94
2022/11/11 09:13:12;;;;;;;26.83;16.73;;;11.90;99.90;;;;;;5016669;28;20232;-94
2022/11/11 09:15:38;;;;;;;23.73;15.15;;;12.50;99.90;;;;;;5001086;28;20089;-95
2022/11/11 09:18:04;;;;;;;26.20;15.77;;;11.80;99.90;;;;;;5016914;28;20047;-96
2022/11/11 09:20:29;;;;;;;32.70;16.85;;;11.70;99.90;;;;;;5020541;28;20036;-96
2022/11/11 09:22:55;;;;;;;27.42;17.23;;;11.70;99.90;;;;;;5001363;28;20083;-96
2022/11/11 09:25:22;;;;;;;28.63;14.93;;;12.00;99.90;;;;;;5001488;28;20076;-94
2022/11/11 09:27:59;;;;;;;25.92;15.02;;;11.70;99.90;;;;;;4999557;28;20092;-95
2022/11/11 09:30:26;;;;;;;26.23;15.93;;;11.90;99.90;;;;;;5033993;28;20041;-96
2022/11/11 09:32:52;;;;;;;29.55;15.68;;;12.70;99.90;;;;;;5033595;28;20102;-95
2022/11/11 09:35:18;;;;;;;27.40;15.45;;;11.80;99.90;;;;;;5032805;28;20040;-94
2022/11/11 09:37:58;;;;;;;23.77;15.35;;;11.70;99.90;;;;;;5001245;28;20048;-96
2022/11/11 09:40:26;;;;;;;29.90;15.70;;;12.60;99.90;;;;;;5032878;28;20488;-95
2022/11/11 09:43:32;;;;;;;23.33;14.85;;;11.70;99.90;;;;;;5033171;28;20076;-96
2022/11/11 09:46:11;;;;;;;25.10;15.95;;;11.70;99.90;;;;;;5033490;28;20104;-96
2022/11/11 09:48:59;;;;;;;26.40;15.07;;;11.70;99.90;;;;;;5033255;28;20037;-96
2022/11/11 09:51:44;;;;;;;25.42;15.60;;;11.70;99.90;;;;;;5034465;28;20139;-94
2022/11/11 09:54:17;;;;;;;20.08;14.32;;;11.70;99.90;;;;;;5031183;28;20041;-95
2022/11/11 09:56:44;;;;;;;26.48;16.25;;;11.70;99.90;;;;;;5032941;28;20110;-96
2022/11/11 09:59:16;;;;;;;25.33;14.95;;;11.60;99.90;;;;;;5015569;28;20217;-96
2022/11/11 10:01:47;;;;;;;30.08;15.35;;;11.60;99.90;;;;;;5031521;28;20090;-95
2022/11/11 10:04:25;;;;;;;25.15;14.98;;;11.60;99.90;;;;;;5035065;28;20364;-93
2022/11/11 10:06:59;;;;;;;22.75;14.38;;;11.60;99.90;;;;;;5031202;28;20081;-93
2022/11/11 10:09:28;;;;;;;;;;;11.60;99.90;;;;;;5033507;28;20479;-95
2022/11/11 10:12:10;;;;;;;26.00;14.35;;;11.50;99.90;;;;;;5033314;28;19943;-95
2022/11/11 10:14:44;;;;;;;22.38;14.13;;;11.50;99.90;;;;;;5032128;28;20098;-95
2022/11/11 10:17:38;;;;;;;27.38;15.32;;;11.50;99.90;;;;;;5037387;28;20127;-92
2022/11/11 10:20:24;;;;;;;24.30;15.68;;;11.50;99.90;;;;;;5050734;28;20060;-95
2022/11/11 10:23:13;;;;;;;21.90;15.13;;;11.50;99.90;;;;;;5042669;28;20048;-95
2022/11/11 10:25:49;;;;;;;27.73;14.52;;;11.50;99.90;;;;;;5023804;28;20053;-95
2022/11/11 10:28:18;;;;;;;22.77;14.27;;;11.50;99.90;;;;;;5035010;28;20045;-95
2022/11/11 10:30:46;;;;;;;23.60;15.10;;;11.80;99.90;;;;;;5037420;28;20051;-96
2022/11/11 10:33:22;;;;;;;21.10;13.30;;;11.50;99.90;;;;;;5035550;28;20051;-94
2022/11/11 10:35:49;;;;;;;23.02;15.25;;;11.70;99.90;;;;;;5035365;28;20634;-95
2022/11/11 10:38:37;;;;;;;25.92;14.68;;;11.60;99.90;;;;;;5004310;28;20099;-96
2022/11/11 10:41:13;;;;;;;30.52;14.70;;;11.60;99.90;;;;;;5035236;28;20040;-95
2022/11/11 10:43:38;;;;;;;21.13;14.07;;;11.60;99.90;;;;;;5036453;28;20499;-94
2022/11/11 10:46:14;;;;;;;23.52;14.73;;;11.60;99.90;;;;;;5018852;28;20037;-94
2022/11/11 10:49:05;;;;;;;20.00;14.07;;;11.60;99.90;;;;;;5052590;28;20036;-95
2022/11/11 10:52:05;;;;;;;22.60;14.13;;;11.60;99.90;;;;;;5036985;28;20050;-96
2022/11/11 10:54:38;;;;;;;22.92;14.88;;;11.80;99.90;;;;;;5035306;28;20387;-92
2022/11/11 10:57:21;;;;;;;23.15;15.18;;;12.70;99.90;;;;;;5036675;28;20040;-96
2022/11/11 10:59:55;;;;;;;17.63;11.55;;;11.60;99.90;;;;;;5035882;28;20480;-95
2022/11/11 11:02:23;;;;;;;22.23;14.45;;;11.60;99.90;;;;;;5035466;28;20080;-95
2022/11/11 11:04:54;;;;;;;20.83;14.38;;;11.90;99.90;;;;;;5037478;28;20044;-94
2022/11/11 11:07:45;;;;;;;20.13;15.38;;;11.70;99.90;;;;;;5033348;28;20041;-92
2022/11/11 11:10:23;;;;;;;23.10;13.85;;;11.70;99.90;;;;;;5027095;28;20052;-95
2022/11/11 11:13:04;;;;;;;22.92;14.43;;;11.70;99.90;;;;;;5035204;28;20062;-92
2022/11/11 11:15:32;;;;;;;20.67;13.75;;;11.80;99.90;;;;;;5049132;28;20084;-94
2022/11/11 11:18:08;;;;;;;24.73;13.60;;;11.80;99.90;;;;;;5018683;28;20090;-93
2022/11/11 11:20:35;;;;;;;21.63;14.75;;;11.80;99.90;;;;;;5033475;28;20048;-93
2022/11/11 11:23:01;;;;;;;20.15;13.27;;;11.80;99.90;;;;;;5034630;28;20045;-92
2022/11/11 11:25:29;;;;;;;20.73;14.50;;;12.20;99.90;;;;;;5034775;28;20131;-93
2022/11/11 11:28:09;;;;;;;20.13;13.57;;;11.90;99.90;;;;;;5033390;28;20121;-90
2022/11/11 11:30:35;;;;;;;20.98;13.45;;;11.90;99.90;;;;;;5035688;28;20120;-93
2022/11/11 11:33:06;;;;;;;20.92;12.80;;;12.60;99.90;;;;;;5033379;28;20131;-90
2022/11/11 11:35:40;;;;;;;21.75;13.68;;;12.00;99.90;;;;;;5034143;28;20479;-90
2022/11/11 11:38:08;;;;;;;27.55;13.25;;;12.20;99.90;;;;;;5050942;28;20052;-93
2022/11/11 11:41:03;;;;;;;17.08;12.85;;;12.00;99.90;;;;;;5033505;28;20079;-92
2022/11/11 11:43:41;;;;;;;18.85;13.52;;;12.00;99.90;;;;;;5018473;28;20097;-93
2022/11/11 11:46:37;;;;;;;24.05;13.60;;;12.00;99.90;;;;;;5033328;28;20487;-91
2022/11/11 11:49:09;;;;;;;18.13;13.15;;;12.00;99.90;;;;;;5033475;28;20140;-94
2022/11/11 11:51:40;;;;;;;16.67;8.93;;;12.00;99.90;;;;;;5032922;28;20431;-86
2022/11/11 11:54:16;;;;;;;17.48;11.73;;;12.10;99.90;;;;;;5047693;28;20049;-86
2022/11/11 11:56:46;;;;;;;18.65;12.18;;;12.10;99.90;;;;;;5035340;28;20094;-96
2022/11/11 11:59:24;;;;;;;21.52;13.70;;;12.10;99.90;;;;;;5033418;28;20032;-93
2022/11/11 12:01:53;;;;;;;19.52;12.70;;;12.10;99.90;;;;;;5034028;28;20467;-94
2022/11/11 12:04:30;;;;;;;20.17;13.65;;;12.10;99.90;;;;;;5033013;28;20044;-92
2022/11/11 12:07:15;;;;;;;20.77;13.15;;;12.10;99.90;;;;;;5033721;28;20195;-94
2022/11/11 12:09:50;;;;;;;17.08;12.25;;;12.10;99.90;;;;;;5033774;28;20059;-94
2022/11/11 12:12:38;;;;;;;17.75;12.68;;;12.20;99.90;;;;;;5049410;28;20036;-91
2022/11/11 12:15:14;;;;;;;16.77;11.88;;;12.50;99.90;;;;;;5032962;28;20090;-93
2022/11/11 12:18:06;;;;;;;20.67;12.15;;;12.10;99.90;;;;;;5033995;28;20048;-93
2022/11/11 12:20:43;;;;;;;21.10;12.47;;;12.10;99.90;;;;;;5049504;28;20041;-94
2022/11/11 12:23:33;;;;;;;20.85;12.10;;;12.10;99.90;;;;;;5035268;28;20044;-95
2022/11/11 12:26:19;;;;;;;17.80;12.70;;;12.10;99.90;;;;;;5037791;28;20332;-96
2022/11/11 12:29:10;;;;;;;18.17;13.05;;;12.10;99.90;;;;;;5036306;28;20066;-93
2022/11/11 12:31:36;;;;;;;21.25;12.55;;;12.00;99.90;;;;;;5050718;28;20072;-92
2022/11/11 12:34:25;;;;;;;21.92;14.30;;;12.00;99.90;;;;;;5047732;28;20036;-93
2022/11/11 12:37:13;;;;;;;20.33;12.82;;;12.00;99.90;;;;;;5038775;28;20056;-91
2022/11/11 12:39:57;;;;;;;19.45;13.43;;;11.80;99.90;;;;;;5035453;28;20044;-94
2022/11/11 12:42:45;;;;;;;19.52;12.18;;;12.00;99.90;;;;;;5037508;28;20036;-93
2022/11/11 12:45:36;;;;;;;18.50;11.95;;;12.00;99.90;;;;;;5035686;28;20056;-93
2022/11/11 12:48:31;;;;;;;15.60;11.77;;;12.00;99.90;;;;;;5036111;28;20048;-94
2022/11/11 12:51:17;;;;;;;24.33;14.07;;;12.10;99.90;;;;;;5035675;28;20150;-94
2022/11/11 12:54:10;;;;;;;16.90;12.73;;;12.00;99.90;;;;;;5036771;28;20101;-96
2022/11/11 12:57:04;;;;;;;16.63;11.43;;;12.00;99.90;;;;;;5039109;28;20048;-93
2022/11/11 12:59:42;;;;;;;16.73;11.02;;;12.00;99.90;;;;;;5013153;28;20589;-93
2022/11/11 13:02:26;;;;;;;19.58;11.77;;;12.00;99.90;;;;;;5038568;28;20609;-95
2022/11/11 13:05:16;;;;;;;16.35;11.88;;;12.00;99.90;;;;;;5038894;28;20041;-94
2022/11/11 13:07:55;;;;;;;15.57;11.55;;;12.00;99.90;;;;;;5037459;28;20056;-95
2022/11/11 13:10:36;;;;;;;18.60;12.70;;;12.00;99.90;;;;;;5040507;28;20043;-94
2022/11/11 13:13:05;;;;;;;17.63;13.23;;;12.00;99.90;;;;;;5040232;28;20584;-89
2022/11/11 13:15:30;;;;;;;17.27;12.73;;;12.00;99.90;;;;;;5034885;28;20135;-95
2022/11/11 13:17:59;;;;;;;20.88;13.93;;;12.30;99.90;;;;;;5035948;28;20487;-94
2022/11/11 13:20:28;;;;;;;16.83;13.13;;;11.90;99.90;;;;;;5016139;28;20041;-96
2022/11/11 13:22:54;;;;;;;19.58;14.20;;;12.40;99.90;;;;;;5035993;28;20055;-94
2022/11/11 13:25:22;;;;;;;20.05;13.60;;;11.90;99.90;;;;;;5033304;28;20044;-95
2022/11/11 13:28:06;;;;;;;18.92;12.68;;;12.30;99.90;;;;;;5034842;28;20040;-96
2022/11/11 13:30:48;;;;;;;17.98;12.80;;;11.90;99.90;;;;;;5035468;28;20044;-93
2022/11/11 13:33:18;;;;;;;23.55;12.10;;;11.90;99.90;;;;;;5036501;28;20044;-95
2022/11/11 13:35:52;;;;;;;19.30;11.77;;;11.90;99.90;;;;;;5034386;28;20045;-95
2022/11/11 13:38:34;;;;;;;19.92;12.43;;;11.90;99.90;;;;;;5033564;28;20102;-95
2022/11/11 13:41:04;;;;;;;16.35;10.90;;;12.00;99.90;;;;;;5050035;28;20087;-94
2022/11/11 13:43:30;;;;;;;17.52;13.00;;;11.90;99.90;;;;;;5019785;28;20036;-96
2022/11/11 13:45:58;;;;;;;21.45;14.60;;;11.90;99.90;;;;;;5036130;28;20628;-94
2022/11/11 13:48:35;;;;;;;19.45;14.18;;;11.80;99.90;;;;;;5032135;28;20050;-94
2022/11/11 13:51:32;;;;;;;20.00;13.73;;;11.90;99.90;;;;;;5033872;28;20048;-81
2022/11/11 13:54:01;;;;;;;23.38;14.35;;;11.80;99.90;;;;;;5024162;28;20389;-92
2022/11/11 13:56:40;;;;;;;18.08;12.82;;;12.60;99.90;;;;;;5047999;28;20044;-92
2022/11/11 13:59:07;;;;;;;21.85;14.63;;;12.20;99.90;;;;;;5032728;28;20122;-93
2022/11/11 14:01:39;;;;;;;21.85;13.55;;;12.20;99.90;;;;;;5015983;28;20131;-94